Time;durP1;ratioP1;P1;durP2;ratioP2;P2;SDS_P1;SDS_P2;PMS_P1;PMS_P2;Temp;Humidity;BMP_temperature;BMP_pressure;BME280_temperature;BME280_humidity;BME280_pressure;Samples;Min_cycle;Max_cycle;Signal;HPM_P1;HPM_P2
2022/02/28 00:02:17;;;;;;;38.42;10.13;;;6.70;76.00;;;;;;5020908;28;20042;-63
2022/02/28 00:04:42;;;;;;;32.45;10.63;;;6.70;76.00;;;;;;5006745;28;20381;-61
2022/02/28 00:07:08;;;;;;;26.50;8.95;;;6.70;76.00;;;;;;5022347;28;20045;-62
2022/02/28 00:09:33;;;;;;;25.10;10.20;;;6.70;76.00;;;;;;5022522;28;20025;-60
2022/02/28 00:11:59;;;;;;;30.88;10.55;;;6.70;76.00;;;;;;5018661;28;20038;-62
2022/02/28 00:14:24;;;;;;;29.67;9.90;;;6.70;76.00;;;;;;5020023;28;20574;-62
2022/02/28 00:16:50;;;;;;;24.08;9.23;;;6.60;76.10;;;;;;5020727;28;20053;-61
2022/02/28 00:19:16;;;;;;;30.45;9.43;;;6.60;76.20;;;;;;5018811;28;20111;-61
2022/02/28 00:21:41;;;;;;;29.58;10.55;;;6.60;76.10;;;;;;5020361;28;20042;-62
2022/02/28 00:24:07;;;;;;;25.50;9.68;;;6.50;76.20;;;;;;5019686;28;20037;-62
2022/02/28 00:26:32;;;;;;;23.73;9.25;;;6.60;76.30;;;;;;5003201;28;20476;-62
2022/02/28 00:28:58;;;;;;;25.52;9.13;;;6.50;76.20;;;;;;5018588;28;20099;-62
2022/02/28 00:31:23;;;;;;;21.48;9.25;;;6.50;76.20;;;;;;5021588;28;20073;-62
2022/02/28 00:33:49;;;;;;;29.17;8.68;;;6.50;76.20;;;;;;5022141;28;20426;-61
2022/02/28 00:36:14;;;;;;;27.50;10.70;;;6.50;76.20;;;;;;5004551;28;20359;-62
2022/02/28 00:38:40;;;;;;;24.45;9.40;;;6.50;76.30;;;;;;5019784;28;20516;-62
2022/02/28 00:41:05;;;;;;;20.38;8.48;;;6.40;76.30;;;;;;5020674;28;20037;-61
2022/02/28 00:43:31;;;;;;;19.42;10.07;;;6.40;76.30;;;;;;5017693;28;20467;-63
2022/02/28 00:45:56;;;;;;;25.85;9.75;;;6.40;76.30;;;;;;5004263;28;20820;-63
2022/02/28 00:48:22;;;;;;;23.58;9.00;;;6.40;76.40;;;;;;5020712;28;20033;-62
2022/02/28 00:50:48;;;;;;;23.27;9.25;;;6.40;76.30;;;;;;5003894;28;20030;-61
2022/02/28 00:53:13;;;;;;;28.85;9.50;;;6.40;76.40;;;;;;5019126;28;20017;-63
2022/02/28 00:55:39;;;;;;;20.08;8.63;;;6.40;76.40;;;;;;5019318;28;20034;-62
2022/02/28 00:58:04;;;;;;;26.38;8.80;;;6.30;76.40;;;;;;5019808;28;20061;-62
2022/02/28 01:00:30;;;;;;;24.13;9.02;;;6.30;76.30;;;;;;5017269;28;20041;-62
2022/02/28 01:02:55;;;;;;;25.83;9.82;;;6.30;76.30;;;;;;5020118;28;20041;-63
2022/02/28 01:05:21;;;;;;;23.80;9.25;;;6.30;76.50;;;;;;5021348;28;20020;-62
2022/02/28 01:07:47;;;;;;;18.98;8.38;;;6.30;76.50;;;;;;5019451;28;21008;-62
2022/02/28 01:10:13;;;;;;;23.30;8.82;;;6.20;76.40;;;;;;5021121;28;20037;-62
2022/02/28 01:12:39;;;;;;;18.98;9.10;;;6.20;76.50;;;;;;5019325;28;20069;-61
2022/02/28 01:15:05;;;;;;;20.33;8.30;;;6.20;76.60;;;;;;5018220;28;20576;-62
2022/02/28 01:17:31;;;;;;;29.60;9.65;;;6.20;76.50;;;;;;5019539;28;20049;-61
2022/02/28 01:19:57;;;;;;;21.10;9.35;;;6.20;76.50;;;;;;5020861;28;20480;-61
2022/02/28 01:22:22;;;;;;;18.33;9.10;;;6.20;76.50;;;;;;5022112;28;20025;-62
2022/02/28 01:24:48;;;;;;;17.83;8.88;;;6.10;76.60;;;;;;5005080;28;20043;-62
2022/02/28 01:27:14;;;;;;;20.92;8.55;;;6.10;76.60;;;;;;5003947;28;20480;-63
2022/02/28 01:29:39;;;;;;;18.50;8.90;;;6.10;76.80;;;;;;5020201;28;20048;-63
2022/02/28 01:32:05;;;;;;;21.30;8.88;;;6.10;76.90;;;;;;5020400;28;20025;-63
2022/02/28 01:34:30;;;;;;;15.35;8.57;;;6.10;76.80;;;;;;5022406;28;20037;-62
2022/02/28 01:36:56;;;;;;;21.75;8.85;;;6.10;77.50;;;;;;5004297;28;20030;-63
2022/02/28 01:39:21;;;;;;;16.90;8.55;;;6.10;76.80;;;;;;5021957;28;20041;-62
2022/02/28 01:41:47;;;;;;;25.05;8.85;;;6.00;76.80;;;;;;5019321;28;20148;-62
2022/02/28 01:44:12;;;;;;;19.65;9.63;;;6.00;77.40;;;;;;5017155;28;20609;-62
2022/02/28 01:46:39;;;;;;;17.73;8.25;;;6.00;76.80;;;;;;5020865;28;20150;-61
2022/02/28 01:49:04;;;;;;;19.85;8.07;;;6.00;76.90;;;;;;5021339;28;20397;-62
2022/02/28 01:51:30;;;;;;;21.80;8.15;;;6.00;76.90;;;;;;5022210;28;20135;-62
2022/02/28 01:53:55;;;;;;;20.52;7.95;;;5.90;76.90;;;;;;5019135;28;21702;-62
2022/02/28 01:56:21;;;;;;;18.77;8.13;;;5.90;76.90;;;;;;5019397;28;20389;-62
2022/02/28 01:58:46;;;;;;;15.05;7.20;;;5.90;76.90;;;;;;5016476;28;20042;-61
2022/02/28 02:01:12;;;;;;;18.05;8.18;;;5.90;76.90;;;;;;5018272;28;20049;-62
2022/02/28 02:03:37;;;;;;;14.98;7.93;;;5.90;76.90;;;;;;5022562;28;20022;-63
2022/02/28 02:06:07;;;;;;;19.98;8.55;;;5.90;76.90;;;;;;5019117;28;20473;-62
2022/02/28 02:08:33;;;;;;;16.85;7.95;;;5.80;76.90;;;;;;5020493;28;20060;-61
2022/02/28 02:10:59;;;;;;;15.73;7.82;;;5.80;76.90;;;;;;5017310;28;20461;-62
2022/02/28 02:13:24;;;;;;;14.70;8.07;;;5.80;77.00;;;;;;5017010;28;20049;-62
2022/02/28 02:15:50;;;;;;;19.73;7.70;;;5.80;77.10;;;;;;5023558;28;20037;-64
2022/02/28 02:18:15;;;;;;;17.38;8.88;;;5.80;77.10;;;;;;5026135;28;20084;-61
2022/02/28 02:20:41;;;;;;;18.13;8.20;;;5.80;77.10;;;;;;5023723;28;20398;-61
2022/02/28 02:23:11;;;;;;;15.57;8.00;;;5.70;77.10;;;;;;5021951;28;20025;-62
2022/02/28 02:25:36;;;;;;;16.80;8.65;;;5.70;77.10;;;;;;5022415;28;20087;-62
2022/02/28 02:28:02;;;;;;;16.73;8.38;;;5.70;77.20;;;;;;5021243;28;20449;-61
2022/02/28 02:30:28;;;;;;;15.02;8.13;;;5.70;77.30;;;;;;5024608;28;20076;-61
2022/02/28 02:32:54;;;;;;;14.48;7.38;;;5.70;77.30;;;;;;5022357;28;20485;-62
2022/02/28 02:35:19;;;;;;;15.27;8.07;;;5.70;77.30;;;;;;5023419;28;20100;-63
2022/02/28 02:37:45;;;;;;;16.58;8.27;;;5.70;77.30;;;;;;5024477;28;20187;-62
2022/02/28 02:40:11;;;;;;;16.42;7.18;;;5.60;77.20;;;;;;5022912;28;20460;-63
2022/02/28 02:42:37;;;;;;;16.08;7.85;;;5.60;77.30;;;;;;5022369;28;20516;-62
2022/02/28 02:45:03;;;;;;;14.52;8.15;;;5.60;77.40;;;;;;5021627;28;20122;-62
2022/02/28 02:47:28;;;;;;;15.05;7.78;;;5.60;77.40;;;;;;5024142;28;20806;-63
2022/02/28 02:49:54;;;;;;;16.08;7.95;;;5.60;77.40;;;;;;5022600;28;20037;-63
2022/02/28 02:52:19;;;;;;;13.02;7.80;;;5.60;77.50;;;;;;5021526;28;20485;-63
2022/02/28 02:54:45;;;;;;;13.88;7.43;;;5.50;77.40;;;;;;5023808;28;20028;-63
2022/02/28 02:57:10;;;;;;;15.52;8.07;;;5.60;77.40;;;;;;5023541;28;20344;-63
2022/02/28 02:59:36;;;;;;;16.35;7.80;;;5.50;77.30;;;;;;5022557;28;20025;-61
2022/02/28 03:02:01;;;;;;;13.25;7.55;;;5.50;77.40;;;;;;5023358;28;20584;-63
2022/02/28 03:04:27;;;;;;;14.25;7.47;;;5.50;77.50;;;;;;5021864;28;20535;-62
2022/02/28 03:06:52;;;;;;;15.98;7.90;;;5.50;77.50;;;;;;5024742;28;20429;-62
2022/02/28 03:09:18;;;;;;;12.63;7.80;;;5.50;77.50;;;;;;5025561;28;20434;-63
2022/02/28 03:11:44;;;;;;;15.70;8.23;;;5.50;77.50;;;;;;5020662;28;20442;-63
2022/02/28 03:14:10;;;;;;;12.73;7.53;;;5.40;77.50;;;;;;5020702;28;20018;-63
2022/02/28 03:16:36;;;;;;;13.07;7.43;;;5.40;78.10;;;;;;5021971;28;20498;-62
2022/02/28 03:19:01;;;;;;;12.85;7.22;;;5.40;77.50;;;;;;5023593;28;20207;-61
2022/02/28 03:21:27;;;;;;;15.90;8.52;;;5.40;77.50;;;;;;5025111;28;20175;-62
2022/02/28 03:23:52;;;;;;;14.88;8.05;;;5.40;77.50;;;;;;5021558;28;20041;-61
2022/02/28 03:26:18;;;;;;;17.30;7.55;;;5.40;77.60;;;;;;5023227;28;20477;-62
2022/02/28 03:28:43;;;;;;;17.23;8.25;;;5.30;77.50;;;;;;5019299;28;20022;-62
2022/02/28 03:31:09;;;;;;;15.20;7.47;;;5.30;77.60;;;;;;5020576;28;20120;-61
2022/02/28 03:33:34;;;;;;;12.57;8.00;;;5.30;77.60;;;;;;5023118;28;20028;-64
2022/02/28 03:36:00;;;;;;;18.38;7.95;;;5.30;77.60;;;;;;5024606;28;20030;-64
2022/02/28 03:38:26;;;;;;;11.52;7.72;;;5.30;77.60;;;;;;5021597;28;20546;-62
2022/02/28 03:40:51;;;;;;;15.32;7.68;;;5.30;77.70;;;;;;5022908;28;20267;-62
2022/02/28 03:43:17;;;;;;;13.68;7.80;;;5.30;77.80;;;;;;5020117;28;20037;-62
2022/02/28 03:45:43;;;;;;;15.30;7.57;;;5.20;77.70;;;;;;5022402;28;20044;-62
2022/02/28 03:48:08;;;;;;;15.25;8.27;;;5.20;77.70;;;;;;5006239;28;20793;-63
2022/02/28 03:50:34;;;;;;;13.10;7.82;;;5.20;77.80;;;;;;5024081;28;20068;-61
2022/02/28 03:52:59;;;;;;;13.88;7.82;;;5.20;77.70;;;;;;5020411;28;20497;-63
2022/02/28 03:55:25;;;;;;;13.70;7.40;;;5.20;77.80;;;;;;5023201;28;20025;-63
2022/02/28 03:57:50;;;;;;;17.15;7.20;;;5.10;77.80;;;;;;5022444;28;20040;-63
2022/02/28 04:00:16;;;;;;;11.73;7.75;;;5.10;77.80;;;;;;5023276;28;20025;-63
2022/02/28 04:02:41;;;;;;;10.25;7.20;;;5.10;77.90;;;;;;5005844;28;20512;-62
2022/02/28 04:05:08;;;;;;;14.75;7.60;;;5.10;78.00;;;;;;5022827;28;20060;-63
2022/02/28 04:07:34;;;;;;;16.77;7.82;;;5.10;78.00;;;;;;5021056;28;20033;-62
2022/02/28 04:09:59;;;;;;;12.30;7.00;;;5.00;78.00;;;;;;5020431;28;20457;-61
2022/02/28 04:12:25;;;;;;;10.77;7.40;;;5.10;78.00;;;;;;5020198;28;20041;-62
2022/02/28 04:14:51;;;;;;;15.73;7.63;;;5.00;77.90;;;;;;5020549;28;20037;-62
2022/02/28 04:17:16;;;;;;;10.70;6.88;;;5.00;77.90;;;;;;5021435;28;20033;-61
2022/02/28 04:19:42;;;;;;;11.57;7.18;;;5.00;77.90;;;;;;5022288;28;20043;-62
2022/02/28 04:22:08;;;;;;;12.90;7.30;;;5.00;77.80;;;;;;5020162;28;20025;-62
2022/02/28 04:24:33;;;;;;;10.68;6.93;;;5.00;77.80;;;;;;5021459;28;20056;-62
2022/02/28 04:26:59;;;;;;;12.48;7.05;;;5.00;77.90;;;;;;5020097;28;20037;-63
2022/02/28 04:29:25;;;;;;;14.00;7.45;;;5.00;77.90;;;;;;5019480;28;20032;-62
2022/02/28 04:31:50;;;;;;;12.45;7.30;;;5.00;78.10;;;;;;5021537;28;20381;-63
2022/02/28 04:34:16;;;;;;;15.70;8.05;;;4.90;78.10;;;;;;5003939;28;20113;-63
2022/02/28 04:36:42;;;;;;;12.13;7.10;;;4.90;78.20;;;;;;5021771;28;20166;-63
2022/02/28 04:39:07;;;;;;;10.68;7.32;;;5.00;78.30;;;;;;5004698;28;20492;-62
2022/02/28 04:41:33;;;;;;;10.93;7.45;;;5.10;78.30;;;;;;5023489;28;20426;-63
2022/02/28 04:43:58;;;;;;;12.85;7.15;;;4.90;78.20;;;;;;5019301;28;20052;-62
2022/02/28 04:46:24;;;;;;;12.27;7.25;;;4.90;78.20;;;;;;5021721;28;20124;-62
2022/02/28 04:48:49;;;;;;;14.32;7.13;;;5.10;78.40;;;;;;5021646;28;20063;-63
2022/02/28 04:51:15;;;;;;;9.90;6.75;;;4.80;78.20;;;;;;5021597;28;20441;-64
2022/02/28 04:53:40;;;;;;;11.50;7.05;;;4.80;78.30;;;;;;5022691;28;20485;-63
2022/02/28 04:56:06;;;;;;;9.65;6.93;;;4.80;78.30;;;;;;5020587;28;20029;-63
2022/02/28 04:58:31;;;;;;;11.70;7.00;;;4.80;78.40;;;;;;5016817;28;20029;-61
2022/02/28 05:00:57;;;;;;;12.15;7.55;;;4.70;78.30;;;;;;5020225;28;20033;-62
2022/02/28 05:03:22;;;;;;;10.23;7.38;;;4.70;78.20;;;;;;5020067;28;20513;-62
2022/02/28 05:05:49;;;;;;;10.13;7.22;;;4.70;79.00;;;;;;5022071;28;20029;-63
2022/02/28 05:08:14;;;;;;;9.88;6.53;;;4.70;78.30;;;;;;5020125;28;20049;-62
2022/02/28 05:10:40;;;;;;;14.65;7.55;;;4.70;78.40;;;;;;5021843;28;20275;-61
2022/02/28 05:13:05;;;;;;;13.00;7.25;;;4.60;78.40;;;;;;5017443;28;20029;-62
2022/02/28 05:15:31;;;;;;;13.57;6.75;;;4.60;78.40;;;;;;5019627;28;20099;-62
2022/02/28 05:17:56;;;;;;;11.70;7.50;;;4.70;78.50;;;;;;5021643;28;20412;-63
2022/02/28 05:20:22;;;;;;;12.43;7.60;;;4.60;78.50;;;;;;5019993;28;20033;-62
2022/02/28 05:22:47;;;;;;;12.20;7.07;;;4.70;78.60;;;;;;5020918;28;20045;-62
2022/02/28 05:25:13;;;;;;;9.75;7.05;;;4.60;78.40;;;;;;5020184;28;20055;-63
2022/02/28 05:27:43;;;;;;;12.43;7.57;;;4.70;78.40;;;;;;5019109;28;20037;-61
2022/02/28 05:30:09;;;;;;;33.25;8.82;;;4.70;78.40;;;;;;5018808;28;20509;-63
2022/02/28 05:32:35;;;;;;;18.35;8.10;;;4.60;78.40;;;;;;5023306;28;20485;-63
2022/02/28 05:35:01;;;;;;;19.83;8.30;;;4.60;78.40;;;;;;5019540;28;20036;-62
2022/02/28 05:37:26;;;;;;;16.17;8.38;;;4.60;78.40;;;;;;5003009;28;20064;-62
2022/02/28 05:39:52;;;;;;;20.70;7.70;;;4.60;78.30;;;;;;5018818;28;20453;-62
2022/02/28 05:42:17;;;;;;;23.30;8.70;;;4.50;78.40;;;;;;5016310;28;20037;-62
2022/02/28 05:44:43;;;;;;;18.80;8.27;;;4.60;78.40;;;;;;5019246;28;20022;-63
2022/02/28 05:47:08;;;;;;;17.45;8.48;;;4.60;78.40;;;;;;5019457;28;20060;-62
2022/02/28 05:49:34;;;;;;;25.92;9.43;;;4.60;78.50;;;;;;5021697;28;20409;-63
2022/02/28 05:51:59;;;;;;;22.48;9.27;;;4.60;78.50;;;;;;5024584;28;20466;-62
2022/02/28 05:54:25;;;;;;;19.48;8.27;;;4.50;78.60;;;;;;5023299;28;20042;-63
2022/02/28 05:56:50;;;;;;;24.25;9.15;;;4.50;78.60;;;;;;5023774;28;20045;-62
2022/02/28 05:59:16;;;;;;;21.95;8.98;;;4.50;78.60;;;;;;5023949;28;20025;-62
2022/02/28 06:01:41;;;;;;;18.52;8.95;;;4.50;78.60;;;;;;5022183;28;20041;-63
2022/02/28 06:04:07;;;;;;;20.15;9.50;;;4.50;78.60;;;;;;5023383;28;20496;-62
2022/02/28 06:06:32;;;;;;;23.02;9.02;;;4.50;78.70;;;;;;5022741;28;20496;-63
2022/02/28 06:08:58;;;;;;;27.27;9.35;;;4.50;78.60;;;;;;5023347;28;20049;-61
2022/02/28 06:11:25;;;;;;;23.75;9.82;;;4.50;78.60;;;;;;5025097;28;20044;-62
2022/02/28 06:13:51;;;;;;;20.90;9.43;;;4.50;78.70;;;;;;5007370;28;20111;-63
2022/02/28 06:16:16;;;;;;;21.55;8.30;;;4.50;78.60;;;;;;5023083;28;20112;-63
2022/02/28 06:18:42;;;;;;;21.10;8.75;;;4.50;78.60;;;;;;5024695;28;20048;-63
2022/02/28 06:21:07;;;;;;;19.60;10.02;;;4.50;78.60;;;;;;5023714;28;20156;-62
2022/02/28 06:23:33;;;;;;;23.25;9.70;;;4.50;78.70;;;;;;5025737;28;20637;-61
2022/02/28 06:25:58;;;;;;;22.80;9.38;;;4.50;78.80;;;;;;5023459;28;20029;-62
2022/02/28 06:28:25;;;;;;;22.58;9.32;;;4.50;78.90;;;;;;5018373;28;20034;-61
2022/02/28 06:30:51;;;;;;;22.20;9.43;;;4.40;78.90;;;;;;5021381;28;20169;-61
2022/02/28 06:33:16;;;;;;;15.88;8.45;;;4.40;78.90;;;;;;5023694;28;20167;-62
2022/02/28 06:35:44;;;;;;;24.23;10.10;;;4.40;79.00;;;;;;5023508;28;20055;-61
2022/02/28 06:38:11;;;;;;;32.75;9.82;;;4.40;79.10;;;;;;5023961;28;20120;-63
2022/02/28 06:40:38;;;;;;;23.83;10.55;;;4.40;79.30;;;;;;5022245;28;20477;-62
2022/02/28 06:43:03;;;;;;;16.73;8.93;;;4.40;79.40;;;;;;5023242;28;20055;-62
2022/02/28 06:45:29;;;;;;;16.77;8.25;;;4.40;79.50;;;;;;5023326;28;20029;-64
2022/02/28 06:47:54;;;;;;;19.98;9.13;;;4.40;79.60;;;;;;5020691;28;20073;-62
2022/02/28 06:50:21;;;;;;;20.08;9.48;;;4.30;79.60;;;;;;5022246;28;20025;-63
2022/02/28 06:52:46;;;;;;;21.70;9.32;;;4.40;79.70;;;;;;5019352;28;20505;-62
2022/02/28 06:55:12;;;;;;;24.13;9.48;;;4.40;79.80;;;;;;5019806;28;20107;-62
2022/02/28 06:57:38;;;;;;;20.63;9.27;;;4.40;79.80;;;;;;5014789;28;20029;-63
2022/02/28 07:00:04;;;;;;;20.13;8.90;;;4.40;79.70;;;;;;5017928;28;20145;-61
2022/02/28 07:02:29;;;;;;;17.25;9.52;;;4.30;79.70;;;;;;5020889;28;20389;-62
2022/02/28 07:04:55;;;;;;;20.83;9.98;;;4.30;79.80;;;;;;5006040;28;20041;-62
2022/02/28 07:07:20;;;;;;;18.90;8.23;;;4.30;79.90;;;;;;5020816;28;20040;-62
2022/02/28 07:09:46;;;;;;;21.73;9.52;;;4.30;79.80;;;;;;5014681;28;20057;-62
2022/02/28 07:12:11;;;;;;;15.57;9.18;;;4.30;79.80;;;;;;5020411;28;20128;-62
2022/02/28 07:14:37;;;;;;;17.00;8.88;;;4.30;79.80;;;;;;5021034;28;20464;-61
2022/02/28 07:17:03;;;;;;;17.55;9.48;;;4.30;79.80;;;;;;5005917;28;20033;-63
2022/02/28 07:19:28;;;;;;;20.27;8.30;;;4.20;80.50;;;;;;5019165;28;20025;-61
2022/02/28 07:21:56;;;;;;;18.75;8.98;;;4.30;79.70;;;;;;5015140;28;20436;-62
2022/02/28 07:24:21;;;;;;;17.63;9.40;;;4.30;79.60;;;;;;5019340;28;20083;-63
2022/02/28 07:26:47;;;;;;;19.35;8.70;;;4.30;79.70;;;;;;5012675;28;20041;-63
2022/02/28 07:29:13;;;;;;;14.85;8.68;;;4.30;79.60;;;;;;5022619;28;20925;-63
2022/02/28 07:31:39;;;;;;;19.45;9.95;;;4.30;79.60;;;;;;5019643;28;20067;-63
2022/02/28 07:34:04;;;;;;;15.07;10.02;;;4.20;79.60;;;;;;5020639;28;20022;-63
2022/02/28 07:36:30;;;;;;;15.65;9.35;;;4.30;79.60;;;;;;5005077;28;20559;-61
2022/02/28 07:38:55;;;;;;;15.55;8.70;;;4.20;79.50;;;;;;5004100;28;20030;-63
2022/02/28 07:41:21;;;;;;;13.05;8.63;;;4.20;79.50;;;;;;5011215;28;20121;-63
2022/02/28 07:43:46;;;;;;;20.38;9.20;;;4.30;79.50;;;;;;5017739;28;20234;-62
2022/02/28 07:46:12;;;;;;;18.08;7.70;;;4.30;79.50;;;;;;5019193;28;20073;-62
2022/02/28 07:48:37;;;;;;;17.52;9.48;;;4.20;79.40;;;;;;5016383;28;20050;-63
2022/02/28 07:51:03;;;;;;;19.23;9.60;;;4.30;79.70;;;;;;5013641;28;20101;-62
2022/02/28 07:53:28;;;;;;;21.70;10.00;;;4.20;79.60;;;;;;5015410;28;20041;-62
2022/02/28 07:55:54;;;;;;;17.35;9.35;;;4.20;79.70;;;;;;5011757;28;20064;-63
2022/02/28 07:58:19;;;;;;;23.70;9.00;;;4.30;79.80;;;;;;5018647;28;20129;-61
2022/02/28 08:00:45;;;;;;;15.43;9.20;;;4.20;79.70;;;;;;5012533;28;20356;-62
2022/02/28 08:03:10;;;;;;;16.83;9.05;;;4.30;79.60;;;;;;5022930;28;20472;-61
2022/02/28 08:05:36;;;;;;;15.43;8.55;;;4.20;79.50;;;;;;5015910;28;20428;-62
2022/02/28 08:08:01;;;;;;;20.10;9.15;;;4.30;79.60;;;;;;5019202;28;20041;-63
2022/02/28 08:10:27;;;;;;;18.98;9.27;;;4.00;79.50;;;;;;5012721;28;20620;-61
2022/02/28 08:12:52;;;;;;;73.65;14.57;;;4.30;79.70;;;;;;5014428;28;20042;-62
2022/02/28 08:15:18;;;;;;;39.90;10.63;;;4.20;79.60;;;;;;5011393;28;20671;-63
2022/02/28 08:17:45;;;;;;;31.10;10.77;;;4.30;79.70;;;;;;5017864;28;20152;-62
2022/02/28 08:20:10;;;;;;;35.85;11.85;;;4.30;79.70;;;;;;5018291;28;20164;-62
2022/02/28 08:22:36;;;;;;;25.42;9.93;;;4.30;79.70;;;;;;5016836;28;20156;-62
2022/02/28 08:25:01;;;;;;;20.08;9.32;;;4.30;79.70;;;;;;5020093;28;20558;-62
2022/02/28 08:27:27;;;;;;;16.65;9.13;;;4.30;79.60;;;;;;5016267;28;20497;-62
2022/02/28 08:29:52;;;;;;;26.02;10.55;;;4.30;79.60;;;;;;5020706;28;20060;-62
2022/02/28 08:32:18;;;;;;;36.45;10.63;;;4.30;79.70;;;;;;5004229;28;20504;-62
2022/02/28 08:34:44;;;;;;;24.00;10.57;;;4.30;79.70;;;;;;5020305;28;20029;-63
2022/02/28 08:37:09;;;;;;;27.48;10.57;;;4.30;79.70;;;;;;5020194;28;20126;-61
2022/02/28 08:39:35;;;;;;;21.75;10.98;;;4.30;79.80;;;;;;5018904;28;20060;-63
2022/02/28 08:42:00;;;;;;;34.20;9.98;;;4.30;79.90;;;;;;4994481;28;20135;-63
2022/02/28 08:44:26;;;;;;;39.30;12.80;;;4.30;79.80;;;;;;5017191;28;20433;-63
2022/02/28 08:46:51;;;;;;;38.72;10.73;;;4.40;79.80;;;;;;5021169;28;20041;-61
2022/02/28 08:49:17;;;;;;;24.75;9.52;;;4.40;79.80;;;;;;4999798;28;20037;-61
2022/02/28 08:51:46;;;;;;;23.83;10.18;;;4.40;79.80;;;;;;5018374;28;20045;-61
2022/02/28 08:54:11;;;;;;;23.77;10.50;;;4.30;79.70;;;;;;5021641;28;20030;-61
2022/02/28 08:56:37;;;;;;;21.17;9.90;;;4.40;79.80;;;;;;5003855;28;20425;-63
2022/02/28 08:59:03;;;;;;;26.30;10.55;;;4.40;79.90;;;;;;5017276;28;20037;-61
2022/02/28 09:01:29;;;;;;;22.33;9.93;;;4.40;79.90;;;;;;4985262;28;20029;-62
2022/02/28 09:03:54;;;;;;;25.88;9.95;;;4.40;79.90;;;;;;5019643;28;20053;-62
2022/02/28 09:06:20;;;;;;;24.85;10.35;;;4.40;79.80;;;;;;5018651;28;20056;-62
2022/02/28 09:08:45;;;;;;;37.00;11.85;;;4.40;79.80;;;;;;5013292;28;20513;-63
2022/02/28 09:11:11;;;;;;;31.73;10.40;;;4.40;79.80;;;;;;5019543;28;20620;-62
2022/02/28 09:13:36;;;;;;;32.97;11.05;;;4.50;79.90;;;;;;5018836;28;20037;-63
2022/02/28 09:16:02;;;;;;;23.55;10.88;;;4.50;79.80;;;;;;5017345;28;20048;-61
2022/02/28 09:18:28;;;;;;;22.92;9.95;;;4.50;79.90;;;;;;5017832;28;20112;-63
2022/02/28 09:20:53;;;;;;;24.88;10.05;;;4.50;79.80;;;;;;5018323;28;20117;-63
2022/02/28 09:23:19;;;;;;;22.48;10.25;;;4.50;79.90;;;;;;4986299;28;20048;-62
2022/02/28 09:25:44;;;;;;;22.08;9.70;;;4.50;79.90;;;;;;5019433;28;20505;-62
2022/02/28 09:28:10;;;;;;;26.30;10.07;;;4.50;79.90;;;;;;5004685;28;20029;-61
2022/02/28 09:30:36;;;;;;;25.45;10.35;;;4.50;79.90;;;;;;5018626;28;20053;-61
2022/02/28 09:33:01;;;;;;;21.27;10.35;;;4.50;79.90;;;;;;5020064;28;20021;-60
2022/02/28 09:35:27;;;;;;;76.70;13.40;;;4.50;80.00;;;;;;5021625;28;20109;-63
2022/02/28 09:37:53;;;;;;;31.88;11.55;;;4.50;80.00;;;;;;5019843;28;20034;-61
2022/02/28 09:40:18;;;;;;;34.58;11.30;;;4.50;80.10;;;;;;5003770;28;20450;-63
2022/02/28 09:42:44;;;;;;;38.53;10.77;;;4.60;80.40;;;;;;5021316;28;20064;-62
2022/02/28 09:45:10;;;;;;;23.95;10.68;;;4.60;80.50;;;;;;5016431;28;20057;-62
2022/02/28 09:47:35;;;;;;;34.65;10.23;;;4.60;80.60;;;;;;5014213;28;20037;-62
2022/02/28 09:50:01;;;;;;;45.72;11.43;;;4.70;80.40;;;;;;5017825;28;20068;-62
2022/02/28 09:52:26;;;;;;;30.15;11.05;;;4.60;80.40;;;;;;4984697;28;20120;-62
2022/02/28 09:54:52;;;;;;;55.92;11.68;;;4.70;80.30;;;;;;5020085;28;20083;-61
2022/02/28 09:57:21;;;;;;;34.15;11.68;;;4.70;80.50;;;;;;5004182;28;20037;-62
2022/02/28 09:59:46;;;;;;;37.55;11.10;;;4.70;80.30;;;;;;5003755;28;20093;-62
2022/02/28 10:02:13;;;;;;;33.35;10.88;;;4.70;80.30;;;;;;5020695;28;20425;-63
2022/02/28 10:04:38;;;;;;;183.02;25.27;;;4.80;80.40;;;;;;5019624;28;20040;-62
2022/02/28 10:07:24;;;;;;;83.00;16.80;;;4.80;80.30;;;;;;5018663;28;20029;-62
2022/02/28 10:10:07;;;;;;;55.40;12.73;;;4.80;80.40;;;;;;5019094;28;20100;-62
2022/02/28 10:12:33;;;;;;;42.70;12.15;;;4.80;80.30;;;;;;5018361;28;20399;-61
2022/02/28 10:15:18;;;;;;;53.75;13.00;;;4.80;80.40;;;;;;5019024;28;20029;-62
2022/02/28 10:17:48;;;;;;;57.67;12.95;;;4.80;80.30;;;;;;5017516;28;20033;-61
2022/02/28 10:20:27;;;;;;;40.25;12.07;;;4.80;80.40;;;;;;5016125;28;20087;-60
2022/02/28 10:23:15;;;;;;;252.98;31.05;;;4.90;80.30;;;;;;5004663;28;20049;-62
2022/02/28 10:25:42;;;;;;;73.70;14.43;;;4.90;80.30;;;;;;5019084;28;20513;-61
2022/02/28 10:28:22;;;;;;;36.47;11.55;;;4.90;80.40;;;;;;4986153;28;20025;-61
2022/02/28 10:31:01;;;;;;;50.95;12.68;;;4.90;80.40;;;;;;5016669;28;20045;-62
2022/02/28 10:33:28;;;;;;;59.22;13.52;;;4.90;80.30;;;;;;4994597;28;20630;-63
2022/02/28 10:36:00;;;;;;;48.13;12.90;;;4.90;80.40;;;;;;5014426;28;20120;-61
2022/02/28 10:38:29;;;;;;;44.83;11.43;;;5.00;80.40;;;;;;5018901;28;20374;-61
2022/02/28 10:40:55;;;;;;;32.78;11.52;;;5.00;80.30;;;;;;5001482;28;20025;-61
2022/02/28 10:43:22;;;;;;;40.05;11.90;;;5.00;80.30;;;;;;5021250;28;20030;-62
2022/02/28 10:45:48;;;;;;;47.67;11.80;;;5.00;80.40;;;;;;5021792;28;20393;-62
2022/02/28 10:48:13;;;;;;;51.83;13.65;;;5.00;80.40;;;;;;5003860;28;20076;-62
2022/02/28 10:50:40;;;;;;;70.20;14.13;;;5.10;80.50;;;;;;5023818;28;20447;-61
2022/02/28 10:53:12;;;;;;;59.17;14.30;;;5.10;81.50;;;;;;5022535;28;20033;-61
2022/02/28 10:55:38;;;;;;;50.85;11.98;;;5.10;80.90;;;;;;5009409;28;20072;-62
2022/02/28 10:58:08;;;;;;;45.17;12.30;;;5.10;80.90;;;;;;5023032;28;20481;-62
2022/02/28 11:01:09;;;;;;;48.22;13.60;;;5.20;80.40;;;;;;5023678;28;20091;-62
2022/02/28 11:03:49;;;;;;;74.38;13.70;;;5.20;80.50;;;;;;4996519;28;20052;-61
2022/02/28 11:06:22;;;;;;;72.82;15.05;;;5.20;80.40;;;;;;4998237;28;20131;-64
2022/02/28 11:08:47;;;;;;;54.50;13.40;;;5.30;80.30;;;;;;5013983;28;20084;-61
2022/02/28 11:11:14;;;;;;;72.47;16.50;;;5.20;80.00;;;;;;5016897;28;20045;-62
2022/02/28 11:13:43;;;;;;;41.42;12.85;;;5.30;80.20;;;;;;5001298;28;20025;-61
2022/02/28 11:16:09;;;;;;;42.55;12.82;;;5.30;80.10;;;;;;5015199;28;20056;-62
2022/02/28 11:18:36;;;;;;;43.92;12.10;;;5.30;79.80;;;;;;5022565;28;20021;-61
2022/02/28 11:21:02;;;;;;;73.53;12.57;;;5.30;79.60;;;;;;5016958;28;20553;-61
2022/02/28 11:23:27;;;;;;;65.97;13.90;;;5.40;79.90;;;;;;5019381;28;20033;-62
2022/02/28 11:25:53;;;;;;;50.25;13.82;;;5.40;80.10;;;;;;5020876;28;20037;-61
2022/02/28 11:28:18;;;;;;;53.67;12.32;;;5.40;80.20;;;;;;5018129;28;20124;-61
2022/02/28 11:30:44;;;;;;;54.42;12.13;;;5.50;80.30;;;;;;5021067;28;20072;-60
2022/02/28 11:33:10;;;;;;;51.97;13.75;;;5.50;80.30;;;;;;5008796;28;20049;-62
2022/02/28 11:35:43;;;;;;;46.95;13.00;;;5.50;80.40;;;;;;5014131;28;20029;-63
2022/02/28 11:38:15;;;;;;;38.30;11.55;;;5.60;80.30;;;;;;5020360;28;20365;-60
2022/02/28 11:40:42;;;;;;;51.47;12.93;;;5.60;79.50;;;;;;5013423;28;20057;-61
2022/02/28 11:43:15;;;;;;;51.65;12.90;;;5.60;79.60;;;;;;4996769;28;20613;-62
2022/02/28 11:46:14;;;;;;;68.97;12.65;;;5.70;79.50;;;;;;5014970;28;20025;-61
2022/02/28 11:48:55;;;;;;;49.40;12.23;;;5.70;80.00;;;;;;5018999;28;20618;-62
2022/02/28 11:51:34;;;;;;;44.40;12.40;;;5.70;80.00;;;;;;5017048;28;20022;-62
2022/02/28 11:54:03;;;;;;;46.08;13.25;;;5.70;79.90;;;;;;5018636;28;20121;-61
2022/02/28 11:56:34;;;;;;;51.88;12.32;;;5.80;79.90;;;;;;5021762;28;20146;-62
2022/02/28 11:59:16;;;;;;;60.20;13.60;;;5.80;79.60;;;;;;5020380;28;20120;-61
2022/02/28 12:01:53;;;;;;;51.78;11.75;;;5.90;79.50;;;;;;5016868;28;20045;-60
2022/02/28 12:04:20;;;;;;;42.15;12.18;;;5.90;79.10;;;;;;5015936;28;20021;-60
2022/02/28 12:07:05;;;;;;;57.50;12.73;;;5.90;78.80;;;;;;5014624;28;20056;-60
2022/02/28 12:09:37;;;;;;;51.83;12.00;;;6.00;78.90;;;;;;5011675;28;20018;-61
2022/02/28 12:12:22;;;;;;;48.40;12.43;;;6.00;79.00;;;;;;5017638;28;20817;-61
2022/02/28 12:14:57;;;;;;;66.38;13.60;;;6.00;79.00;;;;;;5013293;28;20026;-62
2022/02/28 12:17:42;;;;;;;54.38;12.82;;;6.10;79.10;;;;;;5012361;28;20631;-63
2022/02/28 12:20:22;;;;;;;80.90;14.70;;;6.10;78.80;;;;;;5019011;28;20199;-61
2022/02/28 12:23:06;;;;;;;119.90;18.83;;;6.20;79.20;;;;;;5015250;28;20529;-60
2022/02/28 12:25:37;;;;;;;70.80;13.82;;;6.20;79.30;;;;;;5023395;28;20351;-61
2022/02/28 12:28:35;;;;;;;65.00;13.27;;;6.30;79.10;;;;;;5022658;28;21345;-61
2022/02/28 12:31:13;;;;;;;55.28;11.90;;;6.30;78.60;;;;;;5009123;28;20025;-62
2022/02/28 12:33:38;;;;;;;44.30;11.40;;;6.30;78.10;;;;;;5020926;28;20018;-61
2022/02/28 12:36:14;;;;;;;64.18;13.57;;;6.40;78.00;;;;;;5019865;28;20030;-61
2022/02/28 12:38:43;;;;;;;43.47;11.25;;;6.40;78.00;;;;;;5014528;28;20491;-61
2022/02/28 12:41:10;;;;;;;54.65;11.35;;;6.40;77.60;;;;;;5020054;28;20036;-60
2022/02/28 12:43:36;;;;;;;79.35;12.75;;;6.40;77.70;;;;;;4998626;28;20042;-61